sensor_id;sensor_type;location;lat;lon;timestamp;P1;durP1;ratioP1;P2;durP2;ratioP2
62535;SDS011;63050;47.514;18.920;2022-08-30T00:05:15;6.50;;;4.10;;
62535;SDS011;63050;47.514;18.920;2022-08-30T00:10:17;5.00;;;4.40;;
62535;SDS011;63050;47.514;18.920;2022-08-30T00:15:18;5.00;;;3.90;;
62535;SDS011;63050;47.514;18.920;2022-08-30T00:20:23;4.80;;;4.30;;
62535;SDS011;63050;47.514;18.920;2022-08-30T00:25:26;4.90;;;4.00;;
62535;SDS011;63050;47.514;18.920;2022-08-30T00:30:27;4.90;;;4.20;;
62535;SDS011;63050;47.514;18.920;2022-08-30T00:35:29;5.20;;;4.00;;
62535;SDS011;63050;47.514;18.920;2022-08-30T00:40:30;4.80;;;4.10;;
62535;SDS011;63050;47.514;18.920;2022-08-30T00:45:35;5.10;;;4.40;;
62535;SDS011;63050;47.514;18.920;2022-08-30T00:50:37;4.90;;;3.90;;
62535;SDS011;63050;47.514;18.920;2022-08-30T00:55:40;7.20;;;4.80;;
62535;SDS011;63050;47.514;18.920;2022-08-30T01:00:42;6.10;;;5.00;;
62535;SDS011;63050;47.514;18.920;2022-08-30T01:05:43;6.50;;;4.40;;
62535;SDS011;63050;47.514;18.920;2022-08-30T01:10:45;5.60;;;4.50;;
62535;SDS011;63050;47.514;18.920;2022-08-30T01:15:46;5.70;;;4.50;;
62535;SDS011;63050;47.514;18.920;2022-08-30T01:25:51;7.20;;;4.50;;
62535;SDS011;63050;47.514;18.920;2022-08-30T01:30:53;6.00;;;4.80;;
62535;SDS011;63050;47.514;18.920;2022-08-30T01:35:58;6.30;;;5.40;;
62535;SDS011;63050;47.514;18.920;2022-08-30T01:41:11;5.80;;;4.80;;
62535;SDS011;63050;47.514;18.920;2022-08-30T01:46:15;5.60;;;4.80;;
62535;SDS011;63050;47.514;18.920;2022-08-30T01:51:17;13.50;;;5.50;;
62535;SDS011;63050;47.514;18.920;2022-08-30T01:56:18;5.90;;;4.70;;
62535;SDS011;63050;47.514;18.920;2022-08-30T02:01:21;5.40;;;4.80;;
62535;SDS011;63050;47.514;18.920;2022-08-30T02:06:23;6.30;;;4.90;;
62535;SDS011;63050;47.514;18.920;2022-08-30T02:11:24;6.90;;;5.30;;
62535;SDS011;63050;47.514;18.920;2022-08-30T02:16:25;6.70;;;4.90;;
62535;SDS011;63050;47.514;18.920;2022-08-30T02:21:26;6.30;;;4.80;;
62535;SDS011;63050;47.514;18.920;2022-08-30T02:26:28;8.90;;;5.70;;
62535;SDS011;63050;47.514;18.920;2022-08-30T02:31:29;9.90;;;4.80;;
62535;SDS011;63050;47.514;18.920;2022-08-30T02:36:30;5.60;;;5.10;;
62535;SDS011;63050;47.514;18.920;2022-08-30T02:41:31;6.60;;;5.10;;
62535;SDS011;63050;47.514;18.920;2022-08-30T02:46:32;5.50;;;4.90;;
62535;SDS011;63050;47.514;18.920;2022-08-30T02:51:33;6.00;;;4.60;;
62535;SDS011;63050;47.514;18.920;2022-08-30T02:56:35;7.00;;;4.60;;
62535;SDS011;63050;47.514;18.920;2022-08-30T03:01:36;5.40;;;4.90;;
62535;SDS011;63050;47.514;18.920;2022-08-30T03:06:38;7.90;;;5.30;;
62535;SDS011;63050;47.514;18.920;2022-08-30T03:11:39;6.10;;;4.70;;
62535;SDS011;63050;47.514;18.920;2022-08-30T03:16:41;5.30;;;4.50;;
62535;SDS011;63050;47.514;18.920;2022-08-30T03:21:42;5.30;;;4.60;;
62535;SDS011;63050;47.514;18.920;2022-08-30T03:26:44;5.00;;;4.40;;
62535;SDS011;63050;47.514;18.920;2022-08-30T03:31:45;6.20;;;4.70;;
62535;SDS011;63050;47.514;18.920;2022-08-30T03:36:46;5.40;;;4.60;;
62535;SDS011;63050;47.514;18.920;2022-08-30T03:41:48;13.90;;;5.20;;
62535;SDS011;63050;47.514;18.920;2022-08-30T03:46:50;5.00;;;4.30;;
62535;SDS011;63050;47.514;18.920;2022-08-30T03:51:51;5.40;;;4.50;;
62535;SDS011;63050;47.514;18.920;2022-08-30T03:56:52;7.20;;;4.90;;
62535;SDS011;63050;47.514;18.920;2022-08-30T04:01:52;5.80;;;4.70;;
62535;SDS011;63050;47.514;18.920;2022-08-30T04:06:53;5.70;;;4.80;;
62535;SDS011;63050;47.514;18.920;2022-08-30T04:11:54;5.70;;;4.40;;
62535;SDS011;63050;47.514;18.920;2022-08-30T04:16:55;4.90;;;4.30;;
62535;SDS011;63050;47.514;18.920;2022-08-30T04:21:57;6.60;;;4.70;;
62535;SDS011;63050;47.514;18.920;2022-08-30T04:26:58;7.80;;;4.50;;
62535;SDS011;63050;47.514;18.920;2022-08-30T04:32:00;8.70;;;4.70;;
62535;SDS011;63050;47.514;18.920;2022-08-30T04:37:01;5.00;;;4.40;;
62535;SDS011;63050;47.514;18.920;2022-08-30T04:42:02;6.70;;;4.80;;
62535;SDS011;63050;47.514;18.920;2022-08-30T04:47:03;6.70;;;5.00;;
62535;SDS011;63050;47.514;18.920;2022-08-30T04:52:04;5.30;;;4.30;;
62535;SDS011;63050;47.514;18.920;2022-08-30T04:57:08;8.30;;;4.90;;
62535;SDS011;63050;47.514;18.920;2022-08-30T05:02:09;6.20;;;4.70;;
62535;SDS011;63050;47.514;18.920;2022-08-30T05:07:10;6.30;;;4.90;;
62535;SDS011;63050;47.514;18.920;2022-08-30T05:12:10;8.40;;;5.10;;
62535;SDS011;63050;47.514;18.920;2022-08-30T05:17:11;12.50;;;4.80;;
62535;SDS011;63050;47.514;18.920;2022-08-30T05:22:12;8.40;;;4.90;;
62535;SDS011;63050;47.514;18.920;2022-08-30T05:27:13;6.90;;;4.80;;
62535;SDS011;63050;47.514;18.920;2022-08-30T05:32:15;10.30;;;5.00;;
62535;SDS011;63050;47.514;18.920;2022-08-30T05:37:17;9.90;;;5.40;;
62535;SDS011;63050;47.514;18.920;2022-08-30T05:42:18;11.20;;;5.00;;
62535;SDS011;63050;47.514;18.920;2022-08-30T05:47:19;6.60;;;4.90;;
62535;SDS011;63050;47.514;18.920;2022-08-30T05:52:20;5.70;;;4.60;;
62535;SDS011;63050;47.514;18.920;2022-08-30T05:57:22;6.20;;;4.50;;
62535;SDS011;63050;47.514;18.920;2022-08-30T06:02:22;6.10;;;4.90;;
62535;SDS011;63050;47.514;18.920;2022-08-30T06:07:23;10.30;;;5.30;;
62535;SDS011;63050;47.514;18.920;2022-08-30T06:12:24;9.40;;;4.40;;
62535;SDS011;63050;47.514;18.920;2022-08-30T06:17:25;7.30;;;4.30;;
62535;SDS011;63050;47.514;18.920;2022-08-30T06:22:26;6.50;;;4.80;;
62535;SDS011;63050;47.514;18.920;2022-08-30T06:27:27;5.00;;;4.00;;
62535;SDS011;63050;47.514;18.920;2022-08-30T06:32:28;5.90;;;3.80;;
62535;SDS011;63050;47.514;18.920;2022-08-30T06:37:29;7.10;;;4.20;;
62535;SDS011;63050;47.514;18.920;2022-08-30T06:42:32;6.40;;;4.40;;
62535;SDS011;63050;47.514;18.920;2022-08-30T06:47:33;6.40;;;4.00;;
62535;SDS011;63050;47.514;18.920;2022-08-30T06:52:34;7.20;;;4.10;;
62535;SDS011;63050;47.514;18.920;2022-08-30T06:57:35;11.10;;;4.60;;
62535;SDS011;63050;47.514;18.920;2022-08-30T07:02:36;4.40;;;3.70;;
62535;SDS011;63050;47.514;18.920;2022-08-30T07:07:37;5.70;;;3.70;;
62535;SDS011;63050;47.514;18.920;2022-08-30T07:12:39;4.70;;;3.50;;
62535;SDS011;63050;47.514;18.920;2022-08-30T07:17:40;5.20;;;3.80;;
62535;SDS011;63050;47.514;18.920;2022-08-30T07:23:00;7.80;;;4.10;;
62535;SDS011;63050;47.514;18.920;2022-08-30T07:28:02;6.00;;;3.70;;
62535;SDS011;63050;47.514;18.920;2022-08-30T07:33:03;6.30;;;3.70;;
62535;SDS011;63050;47.514;18.920;2022-08-30T07:38:04;5.00;;;3.30;;
62535;SDS011;63050;47.514;18.920;2022-08-30T07:43:05;7.70;;;3.60;;
62535;SDS011;63050;47.514;18.920;2022-08-30T07:48:06;4.90;;;3.60;;
62535;SDS011;63050;47.514;18.920;2022-08-30T07:53:07;7.10;;;3.50;;
62535;SDS011;63050;47.514;18.920;2022-08-30T07:58:08;4.60;;;3.90;;
62535;SDS011;63050;47.514;18.920;2022-08-30T08:03:09;6.80;;;3.90;;
62535;SDS011;63050;47.514;18.920;2022-08-30T08:08:11;5.20;;;3.70;;
62535;SDS011;63050;47.514;18.920;2022-08-30T08:13:12;10.40;;;4.30;;
62535;SDS011;63050;47.514;18.920;2022-08-30T08:18:13;5.70;;;3.30;;
62535;SDS011;63050;47.514;18.920;2022-08-30T08:23:14;4.50;;;3.40;;
62535;SDS011;63050;47.514;18.920;2022-08-30T08:28:15;8.00;;;3.70;;
62535;SDS011;63050;47.514;18.920;2022-08-30T08:33:17;6.00;;;3.80;;
62535;SDS011;63050;47.514;18.920;2022-08-30T08:38:18;5.50;;;4.00;;
62535;SDS011;63050;47.514;18.920;2022-08-30T08:43:19;7.20;;;3.20;;
62535;SDS011;63050;47.514;18.920;2022-08-30T08:48:26;6.10;;;4.00;;
62535;SDS011;63050;47.514;18.920;2022-08-30T08:53:36;6.00;;;3.60;;
62535;SDS011;63050;47.514;18.920;2022-08-30T08:58:58;5.20;;;3.60;;
62535;SDS011;63050;47.514;18.920;2022-08-30T09:04:00;4.00;;;3.50;;
62535;SDS011;63050;47.514;18.920;2022-08-30T09:09:03;10.10;;;3.70;;
62535;SDS011;63050;47.514;18.920;2022-08-30T09:14:05;9.30;;;3.30;;
62535;SDS011;63050;47.514;18.920;2022-08-30T09:19:09;4.60;;;3.30;;
62535;SDS011;63050;47.514;18.920;2022-08-30T09:24:12;6.90;;;3.40;;
62535;SDS011;63050;47.514;18.920;2022-08-30T09:34:17;6.10;;;3.40;;
62535;SDS011;63050;47.514;18.920;2022-08-30T09:39:29;5.50;;;3.40;;
62535;SDS011;63050;47.514;18.920;2022-08-30T09:44:33;20.10;;;4.80;;
62535;SDS011;63050;47.514;18.920;2022-08-30T09:49:41;6.70;;;3.40;;
62535;SDS011;63050;47.514;18.920;2022-08-30T09:54:47;6.10;;;3.50;;
62535;SDS011;63050;47.514;18.920;2022-08-30T10:00:06;6.50;;;3.40;;
62535;SDS011;63050;47.514;18.920;2022-08-30T10:05:21;4.20;;;3.30;;
62535;SDS011;63050;47.514;18.920;2022-08-30T10:10:39;5.10;;;3.60;;
62535;SDS011;63050;47.514;18.920;2022-08-30T10:21:06;4.80;;;3.20;;
62535;SDS011;63050;47.514;18.920;2022-08-30T10:26:46;6.10;;;3.80;;
62535;SDS011;63050;47.514;18.920;2022-08-30T10:31:39;5.90;;;3.70;;
62535;SDS011;63050;47.514;18.920;2022-08-30T10:36:46;5.20;;;3.50;;
62535;SDS011;63050;47.514;18.920;2022-08-30T10:42:33;5.80;;;3.60;;
62535;SDS011;63050;47.514;18.920;2022-08-30T10:53:02;23.00;;;4.40;;
62535;SDS011;63050;47.514;18.920;2022-08-30T10:58:01;7.60;;;4.40;;
62535;SDS011;63050;47.514;18.920;2022-08-30T11:13:27;4.60;;;3.70;;
62535;SDS011;63050;47.514;18.920;2022-08-30T11:18:34;6.30;;;3.60;;
62535;SDS011;63050;47.514;18.920;2022-08-30T11:23:56;4.40;;;3.70;;
62535;SDS011;63050;47.514;18.920;2022-08-30T11:29:01;9.90;;;4.30;;
62535;SDS011;63050;47.514;18.920;2022-08-30T11:34:03;7.50;;;3.70;;
62535;SDS011;63050;47.514;18.920;2022-08-30T11:44:32;4.70;;;3.30;;
62535;SDS011;63050;47.514;18.920;2022-08-30T11:49:42;5.60;;;3.90;;
62535;SDS011;63050;47.514;18.920;2022-08-30T12:00:13;8.40;;;4.20;;
62535;SDS011;63050;47.514;18.920;2022-08-30T12:10:45;4.40;;;3.70;;
62535;SDS011;63050;47.514;18.920;2022-08-30T12:15:56;6.10;;;3.70;;
62535;SDS011;63050;47.514;18.920;2022-08-30T12:21:02;5.00;;;3.40;;
62535;SDS011;63050;47.514;18.920;2022-08-30T12:26:27;5.90;;;3.70;;
62535;SDS011;63050;47.514;18.920;2022-08-30T12:31:36;6.10;;;3.70;;
62535;SDS011;63050;47.514;18.920;2022-08-30T12:36:51;4.90;;;3.30;;
62535;SDS011;63050;47.514;18.920;2022-08-30T12:41:55;6.20;;;3.40;;
62535;SDS011;63050;47.514;18.920;2022-08-30T12:47:09;11.70;;;3.60;;
62535;SDS011;63050;47.514;18.920;2022-08-30T12:57:39;5.30;;;3.10;;
62535;SDS011;63050;47.514;18.920;2022-08-30T13:02:49;5.50;;;3.40;;
62535;SDS011;63050;47.514;18.920;2022-08-30T13:08:08;6.20;;;3.10;;
62535;SDS011;63050;47.514;18.920;2022-08-30T13:13:09;5.30;;;3.40;;
62535;SDS011;63050;47.514;18.920;2022-08-30T13:18:44;5.00;;;3.70;;
62535;SDS011;63050;47.514;18.920;2022-08-30T13:23:38;4.40;;;3.40;;
62535;SDS011;63050;47.514;18.920;2022-08-30T13:28:48;4.40;;;3.00;;
62535;SDS011;63050;47.514;18.920;2022-08-30T13:33:57;5.50;;;3.30;;
62535;SDS011;63050;47.514;18.920;2022-08-30T13:38:59;5.30;;;3.50;;
62535;SDS011;63050;47.514;18.920;2022-08-30T13:44:00;6.50;;;3.00;;
62535;SDS011;63050;47.514;18.920;2022-08-30T13:49:04;2.90;;;2.60;;
62535;SDS011;63050;47.514;18.920;2022-08-30T13:54:07;5.10;;;3.20;;
62535;SDS011;63050;47.514;18.920;2022-08-30T13:59:08;5.70;;;3.10;;
62535;SDS011;63050;47.514;18.920;2022-08-30T14:04:09;5.30;;;3.10;;
62535;SDS011;63050;47.514;18.920;2022-08-30T14:09:10;8.30;;;3.10;;
62535;SDS011;63050;47.514;18.920;2022-08-30T14:14:12;8.30;;;3.30;;
62535;SDS011;63050;47.514;18.920;2022-08-30T14:19:13;5.50;;;3.20;;
62535;SDS011;63050;47.514;18.920;2022-08-30T14:24:15;6.20;;;3.00;;
62535;SDS011;63050;47.514;18.920;2022-08-30T14:29:17;4.30;;;3.40;;
62535;SDS011;63050;47.514;18.920;2022-08-30T14:34:21;5.60;;;3.20;;
62535;SDS011;63050;47.514;18.920;2022-08-30T14:39:22;9.60;;;3.20;;
62535;SDS011;63050;47.514;18.920;2022-08-30T14:44:23;11.00;;;3.30;;
62535;SDS011;63050;47.514;18.920;2022-08-30T14:49:25;5.70;;;3.10;;
62535;SDS011;63050;47.514;18.920;2022-08-30T14:54:27;4.60;;;3.20;;
62535;SDS011;63050;47.514;18.920;2022-08-30T14:59:28;7.70;;;3.50;;
62535;SDS011;63050;47.514;18.920;2022-08-30T15:04:29;6.40;;;3.30;;
62535;SDS011;63050;47.514;18.920;2022-08-30T15:09:30;5.00;;;3.20;;
62535;SDS011;63050;47.514;18.920;2022-08-30T15:14:32;4.40;;;3.40;;
62535;SDS011;63050;47.514;18.920;2022-08-30T15:19:33;5.30;;;3.40;;
62535;SDS011;63050;47.514;18.920;2022-08-30T15:24:34;6.80;;;3.00;;
62535;SDS011;63050;47.514;18.920;2022-08-30T15:29:35;3.70;;;3.00;;
62535;SDS011;63050;47.514;18.920;2022-08-30T15:34:36;4.00;;;3.10;;
62535;SDS011;63050;47.514;18.920;2022-08-30T15:39:37;4.10;;;3.30;;
62535;SDS011;63050;47.514;18.920;2022-08-30T15:44:38;4.50;;;2.80;;
62535;SDS011;63050;47.514;18.920;2022-08-30T15:49:38;4.20;;;2.80;;
62535;SDS011;63050;47.514;18.920;2022-08-30T15:54:39;3.80;;;2.80;;
62535;SDS011;63050;47.514;18.920;2022-08-30T15:59:40;3.80;;;2.70;;
62535;SDS011;63050;47.514;18.920;2022-08-30T16:04:41;5.20;;;3.20;;
62535;SDS011;63050;47.514;18.920;2022-08-30T16:09:42;4.30;;;3.00;;
62535;SDS011;63050;47.514;18.920;2022-08-30T16:14:43;4.80;;;2.80;;
62535;SDS011;63050;47.514;18.920;2022-08-30T16:19:44;5.50;;;3.00;;
62535;SDS011;63050;47.514;18.920;2022-08-30T16:24:45;3.80;;;2.80;;
62535;SDS011;63050;47.514;18.920;2022-08-30T16:29:46;5.50;;;2.60;;
62535;SDS011;63050;47.514;18.920;2022-08-30T16:34:47;4.50;;;2.80;;
62535;SDS011;63050;47.514;18.920;2022-08-30T16:39:48;3.80;;;2.80;;
62535;SDS011;63050;47.514;18.920;2022-08-30T16:44:49;3.70;;;2.90;;
62535;SDS011;63050;47.514;18.920;2022-08-30T16:49:50;3.50;;;2.60;;
62535;SDS011;63050;47.514;18.920;2022-08-30T16:54:50;5.50;;;2.80;;
62535;SDS011;63050;47.514;18.920;2022-08-30T16:59:51;3.90;;;2.70;;
62535;SDS011;63050;47.514;18.920;2022-08-30T17:04:52;3.60;;;2.40;;
62535;SDS011;63050;47.514;18.920;2022-08-30T17:09:53;4.30;;;2.70;;
62535;SDS011;63050;47.514;18.920;2022-08-30T17:14:54;11.90;;;3.30;;
62535;SDS011;63050;47.514;18.920;2022-08-30T17:19:55;12.60;;;3.60;;
62535;SDS011;63050;47.514;18.920;2022-08-30T17:24:56;10.70;;;3.40;;
62535;SDS011;63050;47.514;18.920;2022-08-30T17:29:57;10.30;;;3.20;;
62535;SDS011;63050;47.514;18.920;2022-08-30T17:34:58;6.80;;;2.60;;
62535;SDS011;63050;47.514;18.920;2022-08-30T17:39:59;4.90;;;2.60;;
62535;SDS011;63050;47.514;18.920;2022-08-30T17:45:04;4.60;;;2.80;;
62535;SDS011;63050;47.514;18.920;2022-08-30T17:50:06;4.00;;;2.90;;
62535;SDS011;63050;47.514;18.920;2022-08-30T17:55:08;6.50;;;3.20;;
62535;SDS011;63050;47.514;18.920;2022-08-30T18:00:09;5.60;;;2.70;;
62535;SDS011;63050;47.514;18.920;2022-08-30T18:05:12;10.40;;;4.10;;
62535;SDS011;63050;47.514;18.920;2022-08-30T18:10:13;10.40;;;3.40;;
62535;SDS011;63050;47.514;18.920;2022-08-30T18:15:14;7.20;;;3.10;;
62535;SDS011;63050;47.514;18.920;2022-08-30T18:20:15;12.30;;;3.20;;
62535;SDS011;63050;47.514;18.920;2022-08-30T18:25:16;8.10;;;3.50;;
62535;SDS011;63050;47.514;18.920;2022-08-30T18:30:17;12.40;;;4.70;;
62535;SDS011;63050;47.514;18.920;2022-08-30T18:35:18;7.40;;;3.20;;
62535;SDS011;63050;47.514;18.920;2022-08-30T18:40:19;27.00;;;11.50;;
62535;SDS011;63050;47.514;18.920;2022-08-30T18:45:20;38.30;;;10.30;;
62535;SDS011;63050;47.514;18.920;2022-08-30T18:50:23;9.70;;;3.70;;
62535;SDS011;63050;47.514;18.920;2022-08-30T18:55:24;22.90;;;5.60;;
62535;SDS011;63050;47.514;18.920;2022-08-30T19:00:25;14.40;;;5.80;;
62535;SDS011;63050;47.514;18.920;2022-08-30T19:05:26;7.80;;;3.30;;
62535;SDS011;63050;47.514;18.920;2022-08-30T19:10:27;7.00;;;3.10;;
62535;SDS011;63050;47.514;18.920;2022-08-30T19:15:29;5.30;;;3.40;;
62535;SDS011;63050;47.514;18.920;2022-08-30T19:20:33;4.40;;;2.80;;
62535;SDS011;63050;47.514;18.920;2022-08-30T19:25:34;4.30;;;2.90;;
62535;SDS011;63050;47.514;18.920;2022-08-30T19:30:34;5.70;;;2.90;;
62535;SDS011;63050;47.514;18.920;2022-08-30T19:35:35;13.50;;;3.20;;
62535;SDS011;63050;47.514;18.920;2022-08-30T19:40:36;8.30;;;3.50;;
62535;SDS011;63050;47.514;18.920;2022-08-30T19:45:37;7.10;;;3.60;;
62535;SDS011;63050;47.514;18.920;2022-08-30T19:50:38;6.10;;;2.90;;
62535;SDS011;63050;47.514;18.920;2022-08-30T19:55:39;8.50;;;3.80;;
62535;SDS011;63050;47.514;18.920;2022-08-30T20:00:40;5.40;;;2.90;;
62535;SDS011;63050;47.514;18.920;2022-08-30T20:05:41;6.40;;;3.00;;
62535;SDS011;63050;47.514;18.920;2022-08-30T20:10:42;4.40;;;2.80;;
62535;SDS011;63050;47.514;18.920;2022-08-30T20:15:43;4.70;;;3.00;;
62535;SDS011;63050;47.514;18.920;2022-08-30T20:20:44;5.70;;;3.00;;
62535;SDS011;63050;47.514;18.920;2022-08-30T20:25:45;4.60;;;2.80;;
62535;SDS011;63050;47.514;18.920;2022-08-30T20:30:47;4.10;;;2.60;;
62535;SDS011;63050;47.514;18.920;2022-08-30T20:35:49;5.30;;;2.70;;
62535;SDS011;63050;47.514;18.920;2022-08-30T20:40:51;5.20;;;2.80;;
62535;SDS011;63050;47.514;18.920;2022-08-30T20:45:54;4.70;;;2.80;;
62535;SDS011;63050;47.514;18.920;2022-08-30T20:50:55;6.60;;;3.00;;
62535;SDS011;63050;47.514;18.920;2022-08-30T20:55:56;9.80;;;3.00;;
62535;SDS011;63050;47.514;18.920;2022-08-30T21:00:57;7.20;;;3.20;;
62535;SDS011;63050;47.514;18.920;2022-08-30T21:05:59;5.30;;;3.20;;
62535;SDS011;63050;47.514;18.920;2022-08-30T21:11:00;5.20;;;3.30;;
62535;SDS011;63050;47.514;18.920;2022-08-30T21:16:01;7.80;;;3.50;;
62535;SDS011;63050;47.514;18.920;2022-08-30T21:21:09;3.80;;;2.60;;
62535;SDS011;63050;47.514;18.920;2022-08-30T21:26:11;3.90;;;3.00;;
62535;SDS011;63050;47.514;18.920;2022-08-30T21:31:13;4.90;;;2.70;;
62535;SDS011;63050;47.514;18.920;2022-08-30T21:36:16;6.40;;;3.10;;
62535;SDS011;63050;47.514;18.920;2022-08-30T21:41:36;4.60;;;2.70;;
62535;SDS011;63050;47.514;18.920;2022-08-30T21:46:38;4.50;;;2.80;;
62535;SDS011;63050;47.514;18.920;2022-08-30T21:51:40;4.20;;;3.00;;
62535;SDS011;63050;47.514;18.920;2022-08-30T21:56:43;3.70;;;3.00;;
62535;SDS011;63050;47.514;18.920;2022-08-30T22:01:46;3.90;;;3.00;;
62535;SDS011;63050;47.514;18.920;2022-08-30T22:06:48;6.80;;;2.90;;
62535;SDS011;63050;47.514;18.920;2022-08-30T22:11:49;4.60;;;3.10;;
62535;SDS011;63050;47.514;18.920;2022-08-30T22:16:50;3.90;;;3.10;;
62535;SDS011;63050;47.514;18.920;2022-08-30T22:21:51;3.80;;;2.90;;
62535;SDS011;63050;47.514;18.920;2022-08-30T22:26:52;4.40;;;3.20;;
62535;SDS011;63050;47.514;18.920;2022-08-30T22:31:53;3.90;;;2.70;;
62535;SDS011;63050;47.514;18.920;2022-08-30T22:36:54;6.30;;;3.40;;
62535;SDS011;63050;47.514;18.920;2022-08-30T22:41:55;4.80;;;3.10;;
62535;SDS011;63050;47.514;18.920;2022-08-30T22:46:56;3.70;;;2.50;;
62535;SDS011;63050;47.514;18.920;2022-08-30T22:51:57;4.60;;;3.50;;
62535;SDS011;63050;47.514;18.920;2022-08-30T22:56:58;4.00;;;2.80;;
62535;SDS011;63050;47.514;18.920;2022-08-30T23:01:59;5.50;;;3.00;;
62535;SDS011;63050;47.514;18.920;2022-08-30T23:07:00;4.80;;;2.40;;
62535;SDS011;63050;47.514;18.920;2022-08-30T23:12:01;6.20;;;2.90;;
62535;SDS011;63050;47.514;18.920;2022-08-30T23:17:02;4.10;;;2.60;;
62535;SDS011;63050;47.514;18.920;2022-08-30T23:22:02;5.90;;;2.50;;
62535;SDS011;63050;47.514;18.920;2022-08-30T23:27:03;3.90;;;2.90;;
62535;SDS011;63050;47.514;18.920;2022-08-30T23:32:23;3.30;;;2.80;;
62535;SDS011;63050;47.514;18.920;2022-08-30T23:37:43;6.00;;;2.90;;
62535;SDS011;63050;47.514;18.920;2022-08-30T23:43:02;6.00;;;3.00;;
62535;SDS011;63050;47.514;18.920;2022-08-30T23:48:22;5.10;;;3.40;;
62535;SDS011;63050;47.514;18.920;2022-08-30T23:53:42;6.00;;;3.40;;
62535;SDS011;63050;47.514;18.920;2022-08-30T23:59:01;5.10;;;3.50;;
